Denali National Park, AK

6:15 PM AKST on March 05, 2015 (GMT -0900)
RAWS STAMPEDE AK US | Change Station
CLOSE
Current Station
Personal Weather Station
Location: Denali National Park, AK
Elevation: 1799 ft
Nearby Weather Stations

Elev 1799 ft 63.75 °N, 150.33 °W | Updated 41 minutes ago

Overcast
Overcast
33 °F
Feels Like 33 °F
N
1
Wind Variable Wind from ESE
Gusts 4.0 mph

Today
High -- | Low -- °F
--% Chance of Precip.
Yesterday
High -- | Low -- °F
Precip. -- in
7:56 AM 6:35 PM
Full, 100% visible
Pressure 29.88 in
Visibility 3.0 miles
Clouds Few 1500 ft
Scattered Clouds 2700 ft
Overcast 3400 ft
Windchill 33 °F
Dew Point 27 °F
Humidity 79%
Rainfall in
Snow Depth Not available.
UV 0 out of 12
Pollen Not available.
Air Quality Not available.
Flu Activity Not available.
METAR PAMH 060256Z AUTO 00000KT 3SM FEW015 SCT027 OVC034 M01/M03 A2988 RMK AO1 52024

More Conditions Fewer Conditions

Pressure 29.88 in
Visibility 3.0 miles
Clouds Few 1500 ft
Scattered Clouds 2700 ft
Overcast 3400 ft
Windchill 33 °F
Dew Point 27 °F
Humidity 79%
Rainfall in
Snow Depth Not available.
UV 0 out of 12
Pollen Not available.
Air Quality Not available.
Flu Activity Not available.
METAR PAMH 060256Z AUTO 00000KT 3SM FEW015 SCT027 OVC034 M01/M03 A2988 RMK AO1 52024

More Conditions Fewer Conditions

10-Day Weather Forecast

Almanac

Astronomy

Mar. 05, 2015 Rise Set
Actual Time
Civil Twilight
Nautical Twilight
Astronomical Twilight
Moon
Length of Visible Light
Length of Day
Tomorrow will be .
, % of the Moon is Illuminated

Today's Extremes

State Highs State Lows

Community

WunderPhotos

Upload Photos

1,803,158 photos uploaded!

WunderBlogs® & News

Nearby

Air Quality

  Air Quality AQ Index Pollutant
Not available.

Snow Depth

Station Depth Elevation

Earthquake Activity

City Distance Mag. Time & Date
Minimum magnitude displayed is 2.5.

Coastal Water Temperatures

Place Temperature

Nearby Weather Stations